createdAt,value
2018-04-27T00:02:26.975Z,62.97
2018-04-27T00:04:57.349Z,63.23
2018-04-27T00:07:28.062Z,62.96
2018-04-27T00:09:58.418Z,62.57
2018-04-27T00:12:29.001Z,63.03
2018-04-27T00:14:59.825Z,63.13
2018-04-27T00:17:30.192Z,63.42
2018-04-27T00:20:00.547Z,64.16
2018-04-27T00:22:31.256Z,64.03
2018-04-27T00:25:01.525Z,63.52
2018-04-27T00:27:31.630Z,62.89
2018-04-27T00:30:04.084Z,62.88
2018-04-27T00:32:35.718Z,63.26
2018-04-27T00:35:06.254Z,63.70
2018-04-27T00:37:36.602Z,63.63
2018-04-27T00:40:06.819Z,62.76
2018-04-27T00:42:37.601Z,63.62
2018-04-27T00:45:12.701Z,64.16
2018-04-27T00:47:44.355Z,64.19
2018-04-27T00:50:16.355Z,63.88
2018-04-27T00:52:55.793Z,63.26
2018-04-27T00:55:26.442Z,62.87
2018-04-27T00:57:56.603Z,63.64
2018-04-27T01:00:27.542Z,64.16
2018-04-27T01:03:03.135Z,64.85
2018-04-27T01:05:33.306Z,65.07
2018-04-27T01:08:04.883Z,65.06
2018-04-27T01:10:35.796Z,64.96
2018-04-27T01:13:05.991Z,65.27
2018-04-27T01:16:00.159Z,65.30
2018-04-27T01:18:31.077Z,64.54
2018-04-27T01:21:01.254Z,64.08
2018-04-27T01:23:32.173Z,64.35
2018-04-27T01:26:02.423Z,64.32
2018-04-27T01:28:32.602Z,64.83
2018-04-27T01:31:03.621Z,65.01
2018-04-27T01:33:46.673Z,65.00
2018-04-27T01:36:22.152Z,64.47
2018-04-27T01:39:07.687Z,64.15
2018-04-27T01:41:38.313Z,63.43
2018-04-27T01:44:09.035Z,63.74
2018-04-27T01:46:39.424Z,64.58
2018-04-27T01:49:09.686Z,64.60
2018-04-27T01:51:39.833Z,63.86
2018-04-27T01:54:10.450Z,63.71
2018-04-27T01:56:42.159Z,63.84
2018-04-27T01:59:12.474Z,63.48
2018-04-27T02:01:42.911Z,63.22
2018-04-27T02:04:13.458Z,63.09
2018-04-27T02:06:43.582Z,63.35
2018-04-27T02:09:13.677Z,63.63
2018-04-27T02:11:44.892Z,63.72
2018-04-27T02:14:15.140Z,63.77
2018-04-27T02:16:46.842Z,63.38
2018-04-27T02:19:17.373Z,63.85
2018-04-27T02:21:48.021Z,63.88
2018-04-27T02:24:19.159Z,63.35
2018-04-27T02:26:49.473Z,63.07
2018-04-27T02:29:19.751Z,63.37
2018-04-27T02:31:51.687Z,63.45
2018-04-27T02:34:21.990Z,63.63
2018-04-27T02:36:52.267Z,63.04
2018-04-27T02:39:22.779Z,62.77
2018-04-27T02:41:52.916Z,62.30
2018-04-27T02:44:23.168Z,62.46
2018-04-27T02:46:54.477Z,62.31
2018-04-27T02:49:25.834Z,62.25
2018-04-27T02:51:56.356Z,62.87
2018-04-27T02:54:26.660Z,62.80
2018-04-27T02:56:56.962Z,62.61
2018-04-27T02:59:28.817Z,62.31
2018-04-27T03:01:59.653Z,62.03
2018-04-27T03:04:29.675Z,61.91
2018-04-27T03:06:59.760Z,61.59
2018-04-27T03:09:29.915Z,61.77
2018-04-27T03:12:00.364Z,61.90
2018-04-27T03:14:30.585Z,62.26
2018-04-27T03:17:01.147Z,62.25
2018-04-27T03:19:31.620Z,61.90
2018-04-27T03:22:01.963Z,62.04
2018-04-27T03:24:32.299Z,61.82
2018-04-27T03:27:03.014Z,61.79
2018-04-27T03:29:33.129Z,62.24
2018-04-27T03:32:04.761Z,62.47
2018-04-27T03:34:35.963Z,62.50
2018-04-27T03:37:06.365Z,62.70
2018-04-27T03:39:37.349Z,62.53
2018-04-27T03:42:11.523Z,62.16
2018-04-27T03:44:42.595Z,61.75
2018-04-27T03:47:12.991Z,61.57
2018-04-27T03:49:43.188Z,61.72
2018-04-27T03:52:13.685Z,61.59
2018-04-27T03:54:44.869Z,61.23
2018-04-27T03:57:16.315Z,61.37
2018-04-27T03:59:56.358Z,61.52
2018-04-27T04:04:41.632Z,61.74
2018-04-27T04:07:11.866Z,62.34
2018-04-27T04:09:42.876Z,62.96
2018-04-27T04:12:13.457Z,62.84
2018-04-27T04:14:43.715Z,62.57
2018-04-27T04:17:13.914Z,62.65
2018-04-27T04:19:44.543Z,61.97
2018-04-27T04:22:14.668Z,62.10
2018-04-27T04:24:45.486Z,62.42
2018-04-27T04:27:15.808Z,62.25
2018-04-27T04:29:56.487Z,62.46
2018-04-27T04:32:27.697Z,62.64
2018-04-27T04:34:58.276Z,62.54
2018-04-27T04:37:28.758Z,62.10
2018-04-27T04:40:03.378Z,62.01
2018-04-27T04:42:33.761Z,61.76
2018-04-27T04:45:06.090Z,61.84
2018-04-27T04:47:36.605Z,61.82
2018-04-27T04:50:07.204Z,61.71
2018-04-27T04:52:42.600Z,61.65
2018-04-27T04:55:13.341Z,61.42
2018-04-27T04:57:44.505Z,60.72
2018-04-27T05:00:18.541Z,59.76
2018-04-27T05:02:49.940Z,59.53
2018-04-27T05:05:25.546Z,59.52
2018-04-27T05:07:57.338Z,59.35
2018-04-27T05:10:35.463Z,59.32
2018-04-27T05:13:07.262Z,59.17
2018-04-27T05:15:44.346Z,59.36
2018-04-27T05:18:18.483Z,59.75
2018-04-27T05:20:49.429Z,59.04
2018-04-27T05:23:25.874Z,58.65
2018-04-27T05:25:57.593Z,58.53
2018-04-27T05:28:28.006Z,58.16
2018-04-27T05:31:00.234Z,57.84
2018-04-27T05:33:30.702Z,57.50
2018-04-27T05:36:01.103Z,56.78
2018-04-27T05:38:31.708Z,56.41
2018-04-27T05:41:02.035Z,56.02
2018-04-27T05:43:33.053Z,56.24
2018-04-27T05:46:04.182Z,55.78
2018-04-27T05:48:35.524Z,54.88
2018-04-27T05:51:13.117Z,53.32
2018-04-27T05:56:24.293Z,50.76
2018-04-27T05:58:55.426Z,50.08
2018-04-27T06:01:26.607Z,49.45
2018-04-27T06:04:14.398Z,48.29
2018-04-27T06:06:46.228Z,47.45
2018-04-27T06:09:16.853Z,46.83
2018-04-27T06:11:49.538Z,46.17
2018-04-27T06:14:20.466Z,46.00
2018-04-27T06:16:50.742Z,45.34
2018-04-27T06:19:23.201Z,43.37
2018-04-27T06:21:54.888Z,44.33
2018-04-27T06:24:33.087Z,43.54
2018-04-27T06:27:06.385Z,43.28
2018-04-27T06:29:36.887Z,44.14
2018-04-27T06:32:07.633Z,43.12
2018-04-27T06:34:38.045Z,43.65
2018-04-27T06:37:08.613Z,42.32
2018-04-27T06:39:39.881Z,41.93
2018-04-27T06:42:18.051Z,41.42
2018-04-27T06:44:48.964Z,40.73
2018-04-27T06:47:19.829Z,40.82
2018-04-27T06:49:51.156Z,40.64
2018-04-27T06:52:22.923Z,40.11
2018-04-27T06:54:56.302Z,41.57
2018-04-27T06:57:28.671Z,42.43
2018-04-27T07:00:00.351Z,41.31
2018-04-27T07:02:38.186Z,40.32
2018-04-27T07:05:09.472Z,39.27
2018-04-27T07:07:40.556Z,39.96
2018-04-27T07:10:12.105Z,40.90
2018-04-27T07:12:42.777Z,40.77
2018-04-27T07:15:21.119Z,40.84
2018-04-27T07:17:53.237Z,39.44
2018-04-27T07:20:25.734Z,39.66
2018-04-27T07:22:56.293Z,38.66
2018-04-27T07:25:34.744Z,39.69
2018-04-27T07:28:05.113Z,39.40
2018-04-27T07:30:36.180Z,39.50
2018-04-27T07:33:06.595Z,38.51
2018-04-27T07:35:37.266Z,38.22
2018-04-27T07:38:09.646Z,37.80
2018-04-27T07:40:42.066Z,37.81
2018-04-27T07:43:12.859Z,38.49
2018-04-27T07:45:43.955Z,38.81
2018-04-27T07:48:16.930Z,40.68
2018-04-27T07:50:48.382Z,39.51
2018-04-27T07:53:20.755Z,39.63
2018-04-27T07:55:52.542Z,39.77
2018-04-27T07:58:26.502Z,38.75
2018-04-27T08:01:04.577Z,38.44
2018-04-27T08:03:35.680Z,38.70
2018-04-27T08:06:19.342Z,38.63
2018-04-27T08:08:51.839Z,38.81
2018-04-27T08:11:25.581Z,39.60
2018-04-27T08:13:57.123Z,39.71
2018-04-27T08:16:47.077Z,37.58
2018-04-27T08:19:26.154Z,36.79
2018-04-27T08:21:59.047Z,35.26
2018-04-27T08:24:30.198Z,34.98
2018-04-27T08:27:11.570Z,35.50
2018-04-27T08:29:43.086Z,35.39
2018-04-27T08:32:18.335Z,35.32
2018-04-27T08:34:50.515Z,34.91
2018-04-27T08:37:21.362Z,34.21
2018-04-27T08:39:52.738Z,34.14
2018-04-27T08:45:09.668Z,33.01
2018-04-27T08:47:49.867Z,33.75
2018-04-27T08:50:20.978Z,33.64
2018-04-27T08:52:51.393Z,32.83
2018-04-27T08:55:21.977Z,32.82
2018-04-27T08:57:53.776Z,33.09
2018-04-27T09:00:24.849Z,33.45
2018-04-27T09:02:55.404Z,33.35
2018-04-27T09:05:26.061Z,34.38
2018-04-27T09:07:56.695Z,33.28
2018-04-27T09:10:27.120Z,33.83
2018-04-27T09:12:58.253Z,35.06
2018-04-27T09:15:28.782Z,35.27
2018-04-27T09:17:59.722Z,34.44
2018-04-27T09:20:31.574Z,34.41
2018-04-27T09:23:06.974Z,35.26
2018-04-27T09:25:38.808Z,34.21
2018-04-27T09:28:19.234Z,34.23
2018-04-27T09:30:50.112Z,34.37
2018-04-27T09:33:21.556Z,33.07
2018-04-27T09:35:51.597Z,33.38
2018-04-27T09:38:21.825Z,31.73
2018-04-27T09:40:52.210Z,31.25
2018-04-27T09:43:28.525Z,30.53
2018-04-27T09:45:59.369Z,32.15
2018-04-27T09:48:34.739Z,31.91
2018-04-27T09:51:05.761Z,33.15
2018-04-27T09:53:47.025Z,32.74
2018-04-27T09:56:20.065Z,31.75
2018-04-27T09:58:50.690Z,30.42
2018-04-27T10:01:22.189Z,29.73
2018-04-27T10:06:33.617Z,28.97
2018-04-27T10:11:45.051Z,28.39
2018-04-27T10:14:22.521Z,28.33
2018-04-27T10:16:54.146Z,28.77
2018-04-27T10:19:41.478Z,28.17
2018-04-27T10:22:52.161Z,27.83
2018-04-27T10:25:30.385Z,26.54
2018-04-27T10:28:02.049Z,27.50
2018-04-27T10:30:34.279Z,27.32
2018-04-27T10:33:05.047Z,26.04
2018-04-27T10:35:36.242Z,25.97
2018-04-27T10:38:06.876Z,25.02
2018-04-27T10:40:37.968Z,25.54
2018-04-27T10:43:08.749Z,25.23
2018-04-27T10:45:40.840Z,26.06
2018-04-27T10:48:11.688Z,27.38
2018-04-27T10:50:47.912Z,25.89
2018-04-27T10:53:18.531Z,26.32
2018-04-27T10:55:55.148Z,25.73
2018-04-27T10:58:27.121Z,26.69
2018-04-27T11:00:58.951Z,25.52
2018-04-27T11:03:29.640Z,24.64
2018-04-27T11:06:00.604Z,24.22
2018-04-27T11:08:30.918Z,24.12
2018-04-27T11:11:02.277Z,24.44
2018-04-27T11:13:32.529Z,25.06
2018-04-27T11:16:03.325Z,24.05
2018-04-27T11:18:33.622Z,24.00
2018-04-27T11:21:03.846Z,23.84
2018-04-27T11:23:39.461Z,24.04
2018-04-27T11:26:22.869Z,23.05
2018-04-27T11:29:04.875Z,23.04
2018-04-27T11:31:50.877Z,22.68
2018-04-27T11:34:25.714Z,22.54
2018-04-27T11:36:57.624Z,22.34
2018-04-27T11:39:28.780Z,21.83
2018-04-27T11:42:07.754Z,21.53
2018-04-27T11:44:38.221Z,20.82
2018-04-27T11:47:09.677Z,20.25
2018-04-27T11:49:42.088Z,20.34
2018-04-27T11:52:13.394Z,20.14
2018-04-27T11:54:45.265Z,20.66
2018-04-27T11:57:21.576Z,21.10
2018-04-27T12:02:18.819Z,22.46
2018-04-27T12:04:50.348Z,22.24
2018-04-27T12:07:24.770Z,21.83
2018-04-27T12:09:59.524Z,22.48
2018-04-27T12:12:33.069Z,22.73
2018-04-27T12:15:16.310Z,22.62
2018-04-27T12:17:49.590Z,23.28
2018-04-27T12:20:22.839Z,23.52
2018-04-27T12:22:53.934Z,23.23
2018-04-27T12:25:28.273Z,23.58
2018-04-27T12:28:00.626Z,23.32
2018-04-27T12:30:33.160Z,23.49
2018-04-27T12:33:03.658Z,22.60
2018-04-27T12:35:36.626Z,22.73
2018-04-27T12:38:07.267Z,22.17
2018-04-27T12:40:38.310Z,22.36
2018-04-27T12:43:09.598Z,22.30
2018-04-27T12:45:42.309Z,22.38
2018-04-27T12:48:13.102Z,21.78
2018-04-27T12:50:46.954Z,21.83
2018-04-27T12:53:18.234Z,22.06
2018-04-27T12:55:48.834Z,22.84
2018-04-27T12:58:19.741Z,22.66
2018-04-27T13:00:50.817Z,22.51
2018-04-27T13:03:23.497Z,22.28
2018-04-27T13:05:55.376Z,21.78
2018-04-27T13:08:33.441Z,21.64
2018-04-27T13:11:05.452Z,21.33
2018-04-27T13:13:37.423Z,20.74
2018-04-27T13:16:11.387Z,20.94
2018-04-27T13:18:42.855Z,21.48
2018-04-27T13:21:20.345Z,21.80
2018-04-27T13:23:55.845Z,21.79
2018-04-27T13:26:26.145Z,21.71
2018-04-27T13:28:56.917Z,21.87
2018-04-27T13:31:28.701Z,21.07
2018-04-27T13:34:06.370Z,20.73
2018-04-27T13:36:36.673Z,21.12
2018-04-27T13:39:07.196Z,21.05
2018-04-27T13:41:37.453Z,21.31
2018-04-27T13:44:07.699Z,20.69
2018-04-27T13:46:39.057Z,20.68
2018-04-27T13:49:09.671Z,20.59
2018-04-27T13:51:40.126Z,19.91
2018-04-27T13:54:10.792Z,19.75
2018-04-27T13:56:41.468Z,20.60
2018-04-27T13:59:11.894Z,21.50
2018-04-27T14:01:42.647Z,21.18
2018-04-27T14:04:13.089Z,20.67
2018-04-27T14:06:44.133Z,21.20
2018-04-27T14:11:41.060Z,21.07
2018-04-27T14:14:12.328Z,21.47
2018-04-27T14:16:44.321Z,21.77
2018-04-27T14:19:16.340Z,21.40
2018-04-27T14:21:47.460Z,22.39
2018-04-27T14:24:35.156Z,21.79
2018-04-27T14:27:06.562Z,21.98
2018-04-27T14:29:37.617Z,22.12
2018-04-27T14:34:39.675Z,22.97
2018-04-27T14:37:11.727Z,23.16
2018-04-27T14:39:43.830Z,24.07
2018-04-27T14:42:14.198Z,23.31
2018-04-27T14:44:52.687Z,23.14
2018-04-27T14:47:29.667Z,23.04
2018-04-27T14:50:00.640Z,22.65
2018-04-27T14:52:32.565Z,23.69
2018-04-27T14:55:03.371Z,23.38
2018-04-27T14:57:33.877Z,23.03
2018-04-27T15:00:08.391Z,22.38
2018-04-27T15:02:38.851Z,21.76
2018-04-27T15:05:10.668Z,21.74
2018-04-27T15:07:41.128Z,21.83
2018-04-27T15:10:11.831Z,22.97
2018-04-27T15:12:42.424Z,22.32
2018-04-27T15:15:18.211Z,21.58
2018-04-27T15:17:55.251Z,21.53
2018-04-27T15:20:26.138Z,21.87
2018-04-27T15:22:56.698Z,22.34
2018-04-27T15:25:28.063Z,22.91
2018-04-27T15:28:03.281Z,22.70
2018-04-27T15:30:45.784Z,22.16
2018-04-27T15:33:19.509Z,22.07
2018-04-27T15:35:51.511Z,21.95
2018-04-27T15:38:21.947Z,21.93
2018-04-27T15:40:53.185Z,21.64
2018-04-27T15:43:27.756Z,21.46
2018-04-27T15:46:03.238Z,21.81
2018-04-27T15:48:36.644Z,22.04
2018-04-27T15:51:09.222Z,22.14
2018-04-27T15:53:40.482Z,21.94
2018-04-27T15:56:12.328Z,22.12
2018-04-27T15:58:51.558Z,22.50
2018-04-27T16:01:25.845Z,22.87
2018-04-27T16:03:58.243Z,22.94
2018-04-27T16:06:34.548Z,23.00
2018-04-27T16:09:17.790Z,23.28
2018-04-27T16:11:57.540Z,23.59
2018-04-27T16:14:29.212Z,23.21
2018-04-27T16:17:00.269Z,23.29
2018-04-27T16:19:31.111Z,23.78
2018-04-27T16:22:02.713Z,24.44
2018-04-27T16:24:33.767Z,24.62
2018-04-27T16:27:07.157Z,24.89
2018-04-27T16:29:40.438Z,24.92
2018-04-27T16:32:11.483Z,25.65
2018-04-27T16:34:43.449Z,25.42
2018-04-27T16:37:14.792Z,25.19
2018-04-27T16:39:45.239Z,25.12
2018-04-27T16:42:15.861Z,24.89
2018-04-27T16:44:47.466Z,24.97
2018-04-27T16:47:18.299Z,25.03
2018-04-27T16:49:48.958Z,25.08
2018-04-27T16:52:19.319Z,25.17
2018-04-27T16:57:30.651Z,26.12
2018-04-27T17:00:01.246Z,26.35
2018-04-27T17:02:37.202Z,26.23
2018-04-27T17:05:09.085Z,26.23
2018-04-27T17:14:20.107Z,26.32
2018-04-27T17:17:18.397Z,26.38
2018-04-27T17:19:52.038Z,26.26
2018-04-27T17:22:22.337Z,26.40
2018-04-27T17:24:53.593Z,26.25
2018-04-27T17:30:21.885Z,26.14
2018-04-27T17:32:53.492Z,25.96
2018-04-27T17:35:25.294Z,25.97
2018-04-27T17:37:55.384Z,25.71
2018-04-27T17:40:25.869Z,25.86
2018-04-27T17:43:19.447Z,26.00
2018-04-27T17:45:49.788Z,26.19
2018-04-27T17:48:20.049Z,26.30
2018-04-27T17:50:51.549Z,26.39
2018-04-27T17:53:22.652Z,26.45
2018-04-27T17:55:53.583Z,26.44
2018-04-27T17:58:23.827Z,26.44
2018-04-27T18:00:55.052Z,26.47
2018-04-27T18:03:26.018Z,26.62
2018-04-27T18:05:56.803Z,26.73
2018-04-27T18:08:27.275Z,26.88
2018-04-27T18:11:00.699Z,26.94
2018-04-27T18:13:31.017Z,27.31
2018-04-27T18:16:01.588Z,27.54
2018-04-27T18:18:36.130Z,27.77
2018-04-27T18:21:07.604Z,27.95
2018-04-27T18:23:38.103Z,28.17
2018-04-27T18:26:09.857Z,28.36
2018-04-27T18:28:40.394Z,28.52
2018-04-27T18:31:10.946Z,28.53
2018-04-27T18:33:41.468Z,28.63
2018-04-27T18:36:12.715Z,28.82
2018-04-27T18:38:43.479Z,29.06
2018-04-27T18:41:14.290Z,28.97
2018-04-27T18:43:45.542Z,29.19
2018-04-27T18:46:16.731Z,29.31
2018-04-27T18:48:47.843Z,29.22
2018-04-27T18:51:20.180Z,29.26
2018-04-27T18:53:54.513Z,29.15
2018-04-27T18:56:25.413Z,29.44
2018-04-27T18:58:56.655Z,29.74
2018-04-27T19:01:27.474Z,29.93
2018-04-27T19:03:59.209Z,30.03
2018-04-27T19:06:29.511Z,30.10
2018-04-27T19:09:01.299Z,30.05
2018-04-27T19:11:32.143Z,30.19
2018-04-27T19:14:04.217Z,30.37
2018-04-27T19:16:35.774Z,30.41
2018-04-27T19:19:06.156Z,30.61
2018-04-27T19:21:36.731Z,30.54
2018-04-27T19:24:07.157Z,30.64
2018-04-27T19:26:37.704Z,30.70
2018-04-27T19:29:15.562Z,30.99
2018-04-27T19:31:46.943Z,31.06
2018-04-27T19:34:22.965Z,31.06
2018-04-27T19:37:09.009Z,30.88
2018-04-27T19:39:39.886Z,30.60
2018-04-27T19:42:10.551Z,30.76
2018-04-27T19:44:41.329Z,30.76
2018-04-27T19:47:14.271Z,31.14
2018-04-27T19:49:44.494Z,31.32
2018-04-27T19:52:15.812Z,31.46
2018-04-27T19:54:48.343Z,31.32
2018-04-27T19:57:22.177Z,31.41
2018-04-27T19:59:57.429Z,31.50
2018-04-27T20:02:28.712Z,31.71
2018-04-27T20:05:05.520Z,31.73
2018-04-27T20:07:36.558Z,31.85
2018-04-27T20:10:13.950Z,31.83
2018-04-27T20:12:45.301Z,31.75
2018-04-27T20:15:19.002Z,31.64
2018-04-27T20:17:51.718Z,31.56
2018-04-27T20:20:31.362Z,31.48
2018-04-27T20:23:05.900Z,32.08
2018-04-27T20:25:38.834Z,33.05
2018-04-27T20:28:09.739Z,33.81
2018-04-27T20:30:40.519Z,33.89
2018-04-27T20:33:17.652Z,33.58
2018-04-27T20:35:48.360Z,33.39
2018-04-27T20:38:22.622Z,33.34
2018-04-27T20:40:58.564Z,33.32
2018-04-27T20:43:44.964Z,33.52
2018-04-27T20:46:17.258Z,33.51
2018-04-27T20:48:47.803Z,33.84
2018-04-27T20:51:18.848Z,34.65
2018-04-27T20:53:52.184Z,34.43
2018-04-27T20:56:24.848Z,34.55
2018-04-27T20:58:56.968Z,34.66
2018-04-27T21:01:28.136Z,34.48
2018-04-27T21:03:59.185Z,34.49
2018-04-27T21:06:30.504Z,34.61
2018-04-27T21:09:03.801Z,34.78
2018-04-27T21:11:35.240Z,34.63
2018-04-27T21:14:06.578Z,35.04
2018-04-27T21:16:37.022Z,35.17
2018-04-27T21:19:08.276Z,35.05
2018-04-27T21:21:39.668Z,35.31
2018-04-27T21:24:10.687Z,35.29
2018-04-27T21:26:42.439Z,35.21
2018-04-27T21:29:16.066Z,35.61
2018-04-27T21:31:48.700Z,35.93
2018-04-27T21:34:19.318Z,36.36
2018-04-27T21:36:50.330Z,36.14
2018-04-27T21:39:24.603Z,36.51
2018-04-27T21:42:03.860Z,36.60
2018-04-27T21:44:34.612Z,36.39
2018-04-27T21:47:06.197Z,36.37
2018-04-27T21:49:36.958Z,36.74
2018-04-27T21:52:08.324Z,37.58
2018-04-27T21:54:41.748Z,37.22
2018-04-27T21:57:19.378Z,36.89
2018-04-27T21:59:49.785Z,37.48
2018-04-27T22:02:26.334Z,37.61
2018-04-27T22:05:03.969Z,37.61
2018-04-27T22:07:38.122Z,37.56
2018-04-27T22:10:10.234Z,37.47
2018-04-27T22:12:41.354Z,37.27
2018-04-27T22:15:14.855Z,37.56
2018-04-27T22:17:47.603Z,37.36
2018-04-27T22:20:18.382Z,37.61
2018-04-27T22:22:51.852Z,38.22
2018-04-27T22:25:23.109Z,37.92
2018-04-27T22:27:54.081Z,37.85
2018-04-27T22:30:24.595Z,37.78
2018-04-27T22:32:55.400Z,38.12
2018-04-27T22:35:38.819Z,38.47
2018-04-27T22:38:12.977Z,38.71
2018-04-27T22:40:46.044Z,39.07
2018-04-27T22:43:17.258Z,39.60
2018-04-27T22:48:32.856Z,40.47
2018-04-27T22:51:03.953Z,39.69
2018-04-27T22:53:34.955Z,39.97
2018-04-27T22:56:10.491Z,40.27
2018-04-27T22:58:42.146Z,40.09
2018-04-27T23:03:51.964Z,40.70
2018-04-27T23:06:39.262Z,40.76
2018-04-27T23:09:17.198Z,40.40
2018-04-27T23:11:49.195Z,39.90
2018-04-27T23:14:22.995Z,40.27
2018-04-27T23:16:54.486Z,40.08
2018-04-27T23:19:25.402Z,40.46
2018-04-27T23:21:57.700Z,40.26
2018-04-27T23:24:27.997Z,40.58
2018-04-27T23:27:03.649Z,40.74
2018-04-27T23:29:33.894Z,40.85
2018-04-27T23:32:04.767Z,40.52
2018-04-27T23:34:35.046Z,40.77
2018-04-27T23:37:07.907Z,40.53
2018-04-27T23:39:39.955Z,40.93
2018-04-27T23:42:11.070Z,40.64
2018-04-27T23:44:41.628Z,41.01
2018-04-27T23:47:13.248Z,40.54
2018-04-27T23:49:45.004Z,40.32
2018-04-27T23:52:15.680Z,40.54
2018-04-27T23:54:45.896Z,40.99
2018-04-27T23:57:16.499Z,41.27
2018-04-27T23:59:47.264Z,41.46
